sensor_id;sensor_type;location;lat;lon;timestamp;temperature;humidity
75786;DHT22;64402;44.708;37.644;2023-05-10T00:01:17;10.90;84.17
75786;DHT22;64402;44.708;37.644;2023-05-10T00:03:43;10.71;84.21
75786;DHT22;64402;44.708;37.644;2023-05-10T00:06:10;10.57;85.00
75786;DHT22;64402;44.708;37.644;2023-05-10T00:08:36;10.44;86.03
75786;DHT22;64402;44.708;37.644;2023-05-10T00:11:02;10.36;85.84
75786;DHT22;64402;44.708;37.644;2023-05-10T00:13:29;10.20;86.69
75786;DHT22;64402;44.708;37.644;2023-05-10T00:15:55;10.08;86.85
75786;DHT22;64402;44.708;37.644;2023-05-10T00:18:21;10.01;87.03
75786;DHT22;64402;44.708;37.644;2023-05-10T00:20:48;9.96;87.34
75786;DHT22;64402;44.708;37.644;2023-05-10T00:23:14;9.99;87.41
75786;DHT22;64402;44.708;37.644;2023-05-10T00:25:41;10.01;87.28
75786;DHT22;64402;44.708;37.644;2023-05-10T00:28:07;10.18;87.27
75786;DHT22;64402;44.708;37.644;2023-05-10T00:30:34;10.29;87.63
75786;DHT22;64402;44.708;37.644;2023-05-10T00:33:00;10.40;86.90
75786;DHT22;64402;44.708;37.644;2023-05-10T00:35:27;10.51;86.30
75786;DHT22;64402;44.708;37.644;2023-05-10T00:37:53;10.54;84.89
75786;DHT22;64402;44.708;37.644;2023-05-10T00:40:27;10.59;84.03
75786;DHT22;64402;44.708;37.644;2023-05-10T00:43:00;10.57;84.08
75786;DHT22;64402;44.708;37.644;2023-05-10T00:45:27;10.62;84.14
75786;DHT22;64402;44.708;37.644;2023-05-10T00:47:53;10.59;84.23
75786;DHT22;64402;44.708;37.644;2023-05-10T00:50:22;10.54;84.16
75786;DHT22;64402;44.708;37.644;2023-05-10T00:52:49;10.45;84.56
75786;DHT22;64402;44.708;37.644;2023-05-10T00:55:16;10.33;84.88
75786;DHT22;64402;44.708;37.644;2023-05-10T00:57:42;10.19;85.51
75786;DHT22;64402;44.708;37.644;2023-05-10T01:00:09;10.07;86.18
75786;DHT22;64402;44.708;37.644;2023-05-10T01:02:36;9.92;86.57
75786;DHT22;64402;44.708;37.644;2023-05-10T01:05:03;9.82;86.99
75786;DHT22;64402;44.708;37.644;2023-05-10T01:07:30;9.75;87.43
75786;DHT22;64402;44.708;37.644;2023-05-10T01:09:56;9.64;87.05
75786;DHT22;64402;44.708;37.644;2023-05-10T01:12:23;9.55;87.36
75786;DHT22;64402;44.708;37.644;2023-05-10T01:14:50;9.47;87.90
75786;DHT22;64402;44.708;37.644;2023-05-10T01:17:17;9.40;87.83
75786;DHT22;64402;44.708;37.644;2023-05-10T01:19:43;9.37;88.09
75786;DHT22;64402;44.708;37.644;2023-05-10T01:34:02;9.37;88.46
75786;DHT22;64402;44.708;37.644;2023-05-10T01:36:35;9.39;88.08
75786;DHT22;64402;44.708;37.644;2023-05-10T01:39:16;9.44;87.79
75786;DHT22;64402;44.708;37.644;2023-05-10T01:42:08;9.45;87.55
75786;DHT22;64402;44.708;37.644;2023-05-10T01:47:17;9.49;87.61
75786;DHT22;64402;44.708;37.644;2023-05-10T01:49:49;9.50;87.78
75786;DHT22;64402;44.708;37.644;2023-05-10T01:52:18;9.47;88.12
75786;DHT22;64402;44.708;37.644;2023-05-10T01:54:53;9.42;88.41
75786;DHT22;64402;44.708;37.644;2023-05-10T01:57:22;9.41;89.02
75786;DHT22;64402;44.708;37.644;2023-05-10T01:59:52;9.41;89.24
75786;DHT22;64402;44.708;37.644;2023-05-10T02:02:21;9.44;89.21
75786;DHT22;64402;44.708;37.644;2023-05-10T02:04:49;9.45;88.92
75786;DHT22;64402;44.708;37.644;2023-05-10T02:07:16;9.48;89.03
75786;DHT22;64402;44.708;37.644;2023-05-10T02:09:44;9.47;88.88
75786;DHT22;64402;44.708;37.644;2023-05-10T02:12:14;9.48;88.75
75786;DHT22;64402;44.708;37.644;2023-05-10T02:14:42;9.45;88.84
75786;DHT22;64402;44.708;37.644;2023-05-10T02:17:09;9.45;89.21
75786;DHT22;64402;44.708;37.644;2023-05-10T02:19:39;9.45;88.62
75786;DHT22;64402;44.708;37.644;2023-05-10T02:22:06;9.46;88.85
75786;DHT22;64402;44.708;37.644;2023-05-10T02:24:34;9.49;88.80
75786;DHT22;64402;44.708;37.644;2023-05-10T02:27:03;9.52;88.54
75786;DHT22;64402;44.708;37.644;2023-05-10T02:29:31;9.57;88.55
75786;DHT22;64402;44.708;37.644;2023-05-10T02:31:58;9.64;88.11
75786;DHT22;64402;44.708;37.644;2023-05-10T02:34:26;9.70;88.06
75786;DHT22;64402;44.708;37.644;2023-05-10T02:36:54;9.78;87.48
75786;DHT22;64402;44.708;37.644;2023-05-10T02:39:21;9.89;87.22
75786;DHT22;64402;44.708;37.644;2023-05-10T02:41:49;10.00;87.22
75786;DHT22;64402;44.708;37.644;2023-05-10T02:44:18;10.10;86.86
75786;DHT22;64402;44.708;37.644;2023-05-10T02:46:45;10.14;86.16
75786;DHT22;64402;44.708;37.644;2023-05-10T02:49:12;10.24;86.32
75786;DHT22;64402;44.708;37.644;2023-05-10T02:51:43;10.33;85.83
75786;DHT22;64402;44.708;37.644;2023-05-10T02:54:13;10.44;85.61
75786;DHT22;64402;44.708;37.644;2023-05-10T02:56:47;10.49;85.00
75786;DHT22;64402;44.708;37.644;2023-05-10T02:59:16;10.60;85.26
75786;DHT22;64402;44.708;37.644;2023-05-10T03:01:42;10.69;84.94
75786;DHT22;64402;44.708;37.644;2023-05-10T03:04:08;10.75;83.97
75786;DHT22;64402;44.708;37.644;2023-05-10T03:06:34;10.84;84.17
75786;DHT22;64402;44.708;37.644;2023-05-10T03:09:01;10.86;83.75
75786;DHT22;64402;44.708;37.644;2023-05-10T03:16:56;11.05;83.37
75786;DHT22;64402;44.708;37.644;2023-05-10T03:19:26;11.12;83.01
75786;DHT22;64402;44.708;37.644;2023-05-10T03:21:53;11.15;83.06
75786;DHT22;64402;44.708;37.644;2023-05-10T03:24:27;11.28;83.00
75786;DHT22;64402;44.708;37.644;2023-05-10T03:26:56;11.37;82.73
75786;DHT22;64402;44.708;37.644;2023-05-10T03:29:26;11.40;81.72
75786;DHT22;64402;44.708;37.644;2023-05-10T03:31:52;11.38;82.56
75786;DHT22;64402;44.708;37.644;2023-05-10T03:34:26;11.45;82.52
75786;DHT22;64402;44.708;37.644;2023-05-10T03:36:52;11.55;82.22
75786;DHT22;64402;44.708;37.644;2023-05-10T03:39:18;11.67;81.81
75786;DHT22;64402;44.708;37.644;2023-05-10T03:41:45;11.77;81.31
75786;DHT22;64402;44.708;37.644;2023-05-10T03:44:11;11.85;80.82
75786;DHT22;64402;44.708;37.644;2023-05-10T03:46:37;11.88;80.81
75786;DHT22;64402;44.708;37.644;2023-05-10T03:49:03;12.02;80.62
75786;DHT22;64402;44.708;37.644;2023-05-10T03:51:29;12.13;80.01
75786;DHT22;64402;44.708;37.644;2023-05-10T03:53:56;12.21;79.98
75786;DHT22;64402;44.708;37.644;2023-05-10T03:56:23;12.30;79.03
75786;DHT22;64402;44.708;37.644;2023-05-10T03:58:49;12.41;79.16
75786;DHT22;64402;44.708;37.644;2023-05-10T04:01:15;12.49;78.67
75786;DHT22;64402;44.708;37.644;2023-05-10T04:03:41;12.52;77.73
75786;DHT22;64402;44.708;37.644;2023-05-10T04:06:07;12.52;77.69
75786;DHT22;64402;44.708;37.644;2023-05-10T04:08:34;12.44;77.68
75786;DHT22;64402;44.708;37.644;2023-05-10T04:11:08;12.51;77.63
75786;DHT22;64402;44.708;37.644;2023-05-10T04:13:35;12.63;77.23
75786;DHT22;64402;44.708;37.644;2023-05-10T04:16:02;12.76;77.59
75786;DHT22;64402;44.708;37.644;2023-05-10T04:18:28;12.79;76.35
75786;DHT22;64402;44.708;37.644;2023-05-10T04:20:54;12.81;75.85
75786;DHT22;64402;44.708;37.644;2023-05-10T04:23:20;12.96;75.81
75786;DHT22;64402;44.708;37.644;2023-05-10T04:25:47;13.12;75.26
75786;DHT22;64402;44.708;37.644;2023-05-10T04:28:13;13.26;74.69
75786;DHT22;64402;44.708;37.644;2023-05-10T04:30:39;13.36;74.39
75786;DHT22;64402;44.708;37.644;2023-05-10T04:33:06;13.39;73.36
75786;DHT22;64402;44.708;37.644;2023-05-10T04:35:32;13.54;73.41
75786;DHT22;64402;44.708;37.644;2023-05-10T04:37:58;13.76;72.35
75786;DHT22;64402;44.708;37.644;2023-05-10T04:40:24;13.86;71.74
75786;DHT22;64402;44.708;37.644;2023-05-10T04:42:50;13.99;71.60
75786;DHT22;64402;44.708;37.644;2023-05-10T04:45:17;14.07;71.30
75786;DHT22;64402;44.708;37.644;2023-05-10T04:47:43;14.17;70.76
75786;DHT22;64402;44.708;37.644;2023-05-10T04:50:09;14.06;70.01
75786;DHT22;64402;44.708;37.644;2023-05-10T04:52:35;13.78;71.07
75786;DHT22;64402;44.708;37.644;2023-05-10T04:55:02;13.71;71.24
75786;DHT22;64402;44.708;37.644;2023-05-10T04:57:28;13.76;70.84
75786;DHT22;64402;44.708;37.644;2023-05-10T04:59:54;13.64;71.95
75786;DHT22;64402;44.708;37.644;2023-05-10T05:02:20;13.66;72.54
75786;DHT22;64402;44.708;37.644;2023-05-10T05:04:47;13.70;71.92
75786;DHT22;64402;44.708;37.644;2023-05-10T05:07:13;13.61;71.43
75786;DHT22;64402;44.708;37.644;2023-05-10T05:09:39;13.33;71.79
75786;DHT22;64402;44.708;37.644;2023-05-10T05:12:05;13.34;72.47
75786;DHT22;64402;44.708;37.644;2023-05-10T05:14:31;13.41;72.09
75786;DHT22;64402;44.708;37.644;2023-05-10T05:16:58;13.54;72.33
75786;DHT22;64402;44.708;37.644;2023-05-10T05:19:24;13.62;70.96
75786;DHT22;64402;44.708;37.644;2023-05-10T05:21:51;13.88;70.00
75786;DHT22;64402;44.708;37.644;2023-05-10T05:24:17;14.05;68.42
75786;DHT22;64402;44.708;37.644;2023-05-10T05:26:43;14.00;68.24
75786;DHT22;64402;44.708;37.644;2023-05-10T05:29:09;14.08;68.51
75786;DHT22;64402;44.708;37.644;2023-05-10T05:31:35;14.14;68.52
75786;DHT22;64402;44.708;37.644;2023-05-10T05:34:01;14.07;68.55
75786;DHT22;64402;44.708;37.644;2023-05-10T05:36:27;14.10;68.49
75786;DHT22;64402;44.708;37.644;2023-05-10T05:38:53;14.00;68.48
75786;DHT22;64402;44.708;37.644;2023-05-10T05:41:19;13.98;68.97
75786;DHT22;64402;44.708;37.644;2023-05-10T05:43:47;13.95;68.77
75786;DHT22;64402;44.708;37.644;2023-05-10T05:46:13;14.12;69.16
75786;DHT22;64402;44.708;37.644;2023-05-10T05:48:39;14.39;68.51
75786;DHT22;64402;44.708;37.644;2023-05-10T05:51:05;14.59;67.51
75786;DHT22;64402;44.708;37.644;2023-05-10T05:53:31;14.83;67.10
75786;DHT22;64402;44.708;37.644;2023-05-10T05:55:58;14.98;66.04
75786;DHT22;64402;44.708;37.644;2023-05-10T05:58:25;15.08;65.22
75786;DHT22;64402;44.708;37.644;2023-05-10T06:00:51;15.13;63.41
75786;DHT22;64402;44.708;37.644;2023-05-10T06:03:18;15.38;63.13
75786;DHT22;64402;44.708;37.644;2023-05-10T06:05:44;15.66;61.38
75786;DHT22;64402;44.708;37.644;2023-05-10T06:08:10;15.85;61.35
75786;DHT22;64402;44.708;37.644;2023-05-10T06:10:37;15.96;60.61
75786;DHT22;64402;44.708;37.644;2023-05-10T06:13:03;16.04;60.74
75786;DHT22;64402;44.708;37.644;2023-05-10T06:15:29;15.89;61.29
75786;DHT22;64402;44.708;37.644;2023-05-10T06:17:56;15.70;62.44
75786;DHT22;64402;44.708;37.644;2023-05-10T06:20:22;15.70;61.57
75786;DHT22;64402;44.708;37.644;2023-05-10T06:22:48;15.46;62.23
75786;DHT22;64402;44.708;37.644;2023-05-10T06:25:15;15.49;61.98
75786;DHT22;64402;44.708;37.644;2023-05-10T06:27:44;15.63;61.79
75786;DHT22;64402;44.708;37.644;2023-05-10T06:30:10;15.91;62.33
75786;DHT22;64402;44.708;37.644;2023-05-10T06:32:39;16.15;61.12
75786;DHT22;64402;44.708;37.644;2023-05-10T06:35:05;16.19;60.07
75786;DHT22;64402;44.708;37.644;2023-05-10T06:37:31;16.44;59.56
75786;DHT22;64402;44.708;37.644;2023-05-10T06:39:58;16.50;59.45
75786;DHT22;64402;44.708;37.644;2023-05-10T06:42:24;16.44;59.04
75786;DHT22;64402;44.708;37.644;2023-05-10T06:44:51;16.70;59.38
75786;DHT22;64402;44.708;37.644;2023-05-10T06:47:17;16.77;57.97
75786;DHT22;64402;44.708;37.644;2023-05-10T06:49:43;16.61;59.13
75786;DHT22;64402;44.708;37.644;2023-05-10T06:52:10;16.31;58.35
75786;DHT22;64402;44.708;37.644;2023-05-10T06:54:36;16.19;59.32
75786;DHT22;64402;44.708;37.644;2023-05-10T06:57:02;15.99;59.51
75786;DHT22;64402;44.708;37.644;2023-05-10T06:59:28;16.14;61.01
75786;DHT22;64402;44.708;37.644;2023-05-10T07:01:55;16.39;59.61
75786;DHT22;64402;44.708;37.644;2023-05-10T07:04:21;16.69;60.32
75786;DHT22;64402;44.708;37.644;2023-05-10T07:06:47;16.85;59.26
75786;DHT22;64402;44.708;37.644;2023-05-10T07:09:15;17.04;57.80
75786;DHT22;64402;44.708;37.644;2023-05-10T07:11:41;17.26;57.67
75786;DHT22;64402;44.708;37.644;2023-05-10T07:14:07;17.38;56.76
75786;DHT22;64402;44.708;37.644;2023-05-10T07:16:33;17.60;55.98
75786;DHT22;64402;44.708;37.644;2023-05-10T07:18:59;17.97;56.79
75786;DHT22;64402;44.708;37.644;2023-05-10T07:21:26;18.21;52.24
75786;DHT22;64402;44.708;37.644;2023-05-10T07:23:54;17.96;51.66
75786;DHT22;64402;44.708;37.644;2023-05-10T07:26:20;18.23;51.69
75786;DHT22;64402;44.708;37.644;2023-05-10T07:28:47;18.48;52.83
75786;DHT22;64402;44.708;37.644;2023-05-10T07:31:14;18.84;50.45
75786;DHT22;64402;44.708;37.644;2023-05-10T07:33:40;19.10;50.43
75786;DHT22;64402;44.708;37.644;2023-05-10T07:36:06;19.50;51.14
75786;DHT22;64402;44.708;37.644;2023-05-10T07:38:33;19.41;48.46
75786;DHT22;64402;44.708;37.644;2023-05-10T07:40:59;18.81;48.18
75786;DHT22;64402;44.708;37.644;2023-05-10T07:43:26;18.18;50.38
75786;DHT22;64402;44.708;37.644;2023-05-10T07:45:52;17.85;52.49
75786;DHT22;64402;44.708;37.644;2023-05-10T07:48:19;17.52;52.59
75786;DHT22;64402;44.708;37.644;2023-05-10T07:50:45;17.00;54.69
75786;DHT22;64402;44.708;37.644;2023-05-10T07:53:11;16.63;53.38
75786;DHT22;64402;44.708;37.644;2023-05-10T07:55:38;16.42;54.79
75786;DHT22;64402;44.708;37.644;2023-05-10T07:58:04;16.35;54.20
75786;DHT22;64402;44.708;37.644;2023-05-10T08:00:30;16.33;54.95
75786;DHT22;64402;44.708;37.644;2023-05-10T08:02:57;16.39;56.54
75786;DHT22;64402;44.708;37.644;2023-05-10T08:05:23;16.46;55.06
75786;DHT22;64402;44.708;37.644;2023-05-10T08:07:50;16.61;55.23
75786;DHT22;64402;44.708;37.644;2023-05-10T08:10:16;16.79;55.48
75786;DHT22;64402;44.708;37.644;2023-05-10T08:12:42;16.80;55.17
75786;DHT22;64402;44.708;37.644;2023-05-10T08:15:09;16.69;56.67
75786;DHT22;64402;44.708;37.644;2023-05-10T08:17:36;16.69;55.37
75786;DHT22;64402;44.708;37.644;2023-05-10T08:20:02;16.72;56.47
75786;DHT22;64402;44.708;37.644;2023-05-10T08:22:28;16.85;55.33
75786;DHT22;64402;44.708;37.644;2023-05-10T08:24:55;17.02;53.97
75786;DHT22;64402;44.708;37.644;2023-05-10T08:27:21;17.40;53.59
75786;DHT22;64402;44.708;37.644;2023-05-10T08:29:47;17.63;53.14
75786;DHT22;64402;44.708;37.644;2023-05-10T08:32:14;18.08;51.82
75786;DHT22;64402;44.708;37.644;2023-05-10T08:34:40;18.64;51.21
75786;DHT22;64402;44.708;37.644;2023-05-10T08:37:06;19.28;51.03
75786;DHT22;64402;44.708;37.644;2023-05-10T08:39:35;19.68;48.58
75786;DHT22;64402;44.708;37.644;2023-05-10T08:42:04;19.98;46.88
75786;DHT22;64402;44.708;37.644;2023-05-10T08:44:35;20.12;46.53
75786;DHT22;64402;44.708;37.644;2023-05-10T08:47:04;20.58;44.86
75786;DHT22;64402;44.708;37.644;2023-05-10T08:49:32;20.91;44.14
75786;DHT22;64402;44.708;37.644;2023-05-10T08:52:03;21.25;44.12
75786;DHT22;64402;44.708;37.644;2023-05-10T08:54:32;21.33;42.26
75786;DHT22;64402;44.708;37.644;2023-05-10T08:56:58;21.34;40.88
75786;DHT22;64402;44.708;37.644;2023-05-10T08:59:25;21.35;40.37
75786;DHT22;64402;44.708;37.644;2023-05-10T09:01:52;21.43;40.52
75786;DHT22;64402;44.708;37.644;2023-05-10T09:04:20;21.11;40.33
75786;DHT22;64402;44.708;37.644;2023-05-10T09:06:46;21.31;42.01
75786;DHT22;64402;44.708;37.644;2023-05-10T09:09:12;21.50;42.99
75786;DHT22;64402;44.708;37.644;2023-05-10T09:11:39;21.46;43.26
75786;DHT22;64402;44.708;37.644;2023-05-10T09:14:05;22.21;41.90
75786;DHT22;64402;44.708;37.644;2023-05-10T09:16:31;22.55;41.13
75786;DHT22;64402;44.708;37.644;2023-05-10T09:18:58;22.41;41.04
75786;DHT22;64402;44.708;37.644;2023-05-10T09:21:24;21.73;41.08
75786;DHT22;64402;44.708;37.644;2023-05-10T09:23:51;21.15;42.55
75786;DHT22;64402;44.708;37.644;2023-05-10T09:26:23;20.83;43.98
75786;DHT22;64402;44.708;37.644;2023-05-10T09:31:17;19.48;47.39
75786;DHT22;64402;44.708;37.644;2023-05-10T09:33:44;18.84;48.30
75786;DHT22;64402;44.708;37.644;2023-05-10T09:36:12;18.38;50.24
75786;DHT22;64402;44.708;37.644;2023-05-10T09:38:51;17.81;49.53
75786;DHT22;64402;44.708;37.644;2023-05-10T09:41:22;17.28;51.64
75786;DHT22;64402;44.708;37.644;2023-05-10T09:43:50;16.92;53.17
75786;DHT22;64402;44.708;37.644;2023-05-10T09:46:17;16.80;53.80
75786;DHT22;64402;44.708;37.644;2023-05-10T09:48:44;16.55;55.23
75786;DHT22;64402;44.708;37.644;2023-05-10T09:51:21;16.51;56.46
75786;DHT22;64402;44.708;37.644;2023-05-10T09:53:48;16.57;55.61
75786;DHT22;64402;44.708;37.644;2023-05-10T09:56:35;16.35;56.48
75786;DHT22;64402;44.708;37.644;2023-05-10T09:59:03;16.24;56.14
75786;DHT22;64402;44.708;37.644;2023-05-10T10:01:29;16.19;56.14
75786;DHT22;64402;44.708;37.644;2023-05-10T10:03:56;16.25;55.86
75786;DHT22;64402;44.708;37.644;2023-05-10T10:06:24;16.39;55.85
75786;DHT22;64402;44.708;37.644;2023-05-10T10:08:51;16.55;55.36
75786;DHT22;64402;44.708;37.644;2023-05-10T10:11:18;16.69;53.75
75786;DHT22;64402;44.708;37.644;2023-05-10T10:13:44;16.82;54.40
75786;DHT22;64402;44.708;37.644;2023-05-10T10:16:10;16.77;55.08
75786;DHT22;64402;44.708;37.644;2023-05-10T10:18:36;16.69;55.16
75786;DHT22;64402;44.708;37.644;2023-05-10T10:21:12;16.85;53.78
75786;DHT22;64402;44.708;37.644;2023-05-10T10:23:39;17.00;53.73
75786;DHT22;64402;44.708;37.644;2023-05-10T10:26:05;17.22;53.76
75786;DHT22;64402;44.708;37.644;2023-05-10T10:31:40;17.58;52.31
75786;DHT22;64402;44.708;37.644;2023-05-10T10:34:11;17.64;51.48
75786;DHT22;64402;44.708;37.644;2023-05-10T10:36:46;17.88;51.09
75786;DHT22;64402;44.708;37.644;2023-05-10T10:39:15;18.23;51.97
75786;DHT22;64402;44.708;37.644;2023-05-10T10:42:00;18.76;48.00
75786;DHT22;64402;44.708;37.644;2023-05-10T10:49:32;19.70;45.21
75786;DHT22;64402;44.708;37.644;2023-05-10T10:52:21;20.01;44.93
75786;DHT22;64402;44.708;37.644;2023-05-10T10:55:03;20.06;43.11
75786;DHT22;64402;44.708;37.644;2023-05-10T11:00:21;18.54;49.13
75786;DHT22;64402;44.708;37.644;2023-05-10T11:02:50;18.44;49.95
75786;DHT22;64402;44.708;37.644;2023-05-10T11:08:06;19.72;47.23
75786;DHT22;64402;44.708;37.644;2023-05-10T11:10:33;20.33;45.08
75786;DHT22;64402;44.708;37.644;2023-05-10T11:13:04;20.27;44.77
75786;DHT22;64402;44.708;37.644;2023-05-10T11:15:32;21.50;43.38
75786;DHT22;64402;44.708;37.644;2023-05-10T15:58:40;20.98;36.66
75786;DHT22;64402;44.708;37.644;2023-05-10T16:01:07;20.71;38.25
75786;DHT22;64402;44.708;37.644;2023-05-10T16:03:33;20.66;39.27
75786;DHT22;64402;44.708;37.644;2023-05-10T16:06:00;20.07;39.57
75786;DHT22;64402;44.708;37.644;2023-05-10T16:08:27;19.62;40.21
75786;DHT22;64402;44.708;37.644;2023-05-10T16:10:56;19.42;40.82
75786;DHT22;64402;44.708;37.644;2023-05-10T16:13:22;19.01;41.58
75786;DHT22;64402;44.708;37.644;2023-05-10T16:15:48;18.70;43.02
75786;DHT22;64402;44.708;37.644;2023-05-10T16:18:14;18.41;43.68
75786;DHT22;64402;44.708;37.644;2023-05-10T16:20:43;18.11;44.70
75786;DHT22;64402;44.708;37.644;2023-05-10T16:23:10;17.55;45.40
75786;DHT22;64402;44.708;37.644;2023-05-10T16:25:36;16.69;47.91
75786;DHT22;64402;44.708;37.644;2023-05-10T16:28:02;16.03;50.06
75786;DHT22;64402;44.708;37.644;2023-05-10T16:30:28;15.43;52.32
75786;DHT22;64402;44.708;37.644;2023-05-10T16:32:59;14.98;53.23
75786;DHT22;64402;44.708;37.644;2023-05-10T16:37:30;14.34;55.72
75786;DHT22;64402;44.708;37.644;2023-05-10T16:39:56;14.04;56.65
75786;DHT22;64402;44.708;37.644;2023-05-10T16:42:22;13.76;58.64
75786;DHT22;64402;44.708;37.644;2023-05-10T16:44:49;13.49;59.46
75786;DHT22;64402;44.708;37.644;2023-05-10T16:47:15;13.30;59.74
75786;DHT22;64402;44.708;37.644;2023-05-10T16:49:42;13.14;61.83
75786;DHT22;64402;44.708;37.644;2023-05-10T16:52:08;12.95;61.31
75786;DHT22;64402;44.708;37.644;2023-05-10T16:54:34;12.78;61.66
75786;DHT22;64402;44.708;37.644;2023-05-10T16:57:00;12.57;63.81
75786;DHT22;64402;44.708;37.644;2023-05-10T16:59:26;12.45;64.71
75786;DHT22;64402;44.708;37.644;2023-05-10T17:01:53;12.29;64.85
75786;DHT22;64402;44.708;37.644;2023-05-10T17:04:22;12.14;66.24
75786;DHT22;64402;44.708;37.644;2023-05-10T17:06:48;12.00;67.70
75786;DHT22;64402;44.708;37.644;2023-05-10T17:09:14;11.83;67.39
75786;DHT22;64402;44.708;37.644;2023-05-10T17:11:40;11.63;67.90
75786;DHT22;64402;44.708;37.644;2023-05-10T17:14:07;11.48;68.43
75786;DHT22;64402;44.708;37.644;2023-05-10T17:16:33;11.36;69.60
75786;DHT22;64402;44.708;37.644;2023-05-10T17:19:00;11.27;69.81
75786;DHT22;64402;44.708;37.644;2023-05-10T17:21:26;11.17;70.03
75786;DHT22;64402;44.708;37.644;2023-05-10T17:23:53;11.08;70.07
75786;DHT22;64402;44.708;37.644;2023-05-10T17:26:19;11.00;70.57
75786;DHT22;64402;44.708;37.644;2023-05-10T17:28:46;10.95;71.98
75786;DHT22;64402;44.708;37.644;2023-05-10T17:31:13;10.90;71.32
75786;DHT22;64402;44.708;37.644;2023-05-10T17:33:39;10.84;71.41
75786;DHT22;64402;44.708;37.644;2023-05-10T17:36:06;10.78;72.41
75786;DHT22;64402;44.708;37.644;2023-05-10T17:38:32;10.66;72.13
75786;DHT22;64402;44.708;37.644;2023-05-10T17:40:59;10.57;71.84
75786;DHT22;64402;44.708;37.644;2023-05-10T17:43:25;10.48;72.32
75786;DHT22;64402;44.708;37.644;2023-05-10T17:45:52;10.34;73.57
75786;DHT22;64402;44.708;37.644;2023-05-10T17:48:18;10.21;74.12
75786;DHT22;64402;44.708;37.644;2023-05-10T17:50:44;10.15;74.31
75786;DHT22;64402;44.708;37.644;2023-05-10T17:53:11;10.11;75.73
75786;DHT22;64402;44.708;37.644;2023-05-10T17:55:41;10.08;76.31
75786;DHT22;64402;44.708;37.644;2023-05-10T17:58:09;10.07;76.30
75786;DHT22;64402;44.708;37.644;2023-05-10T18:00:36;10.01;76.55
75786;DHT22;64402;44.708;37.644;2023-05-10T18:03:04;9.92;76.57
75786;DHT22;64402;44.708;37.644;2023-05-10T18:05:34;9.84;76.80
75786;DHT22;64402;44.708;37.644;2023-05-10T18:08:00;9.74;76.84
75786;DHT22;64402;44.708;37.644;2023-05-10T18:10:27;9.67;77.05
75786;DHT22;64402;44.708;37.644;2023-05-10T18:12:53;9.57;77.10
75786;DHT22;64402;44.708;37.644;2023-05-10T18:15:20;9.46;77.40
75786;DHT22;64402;44.708;37.644;2023-05-10T18:17:48;9.41;78.05
75786;DHT22;64402;44.708;37.644;2023-05-10T18:20:14;9.39;78.55
75786;DHT22;64402;44.708;37.644;2023-05-10T18:22:40;9.32;78.50
75786;DHT22;64402;44.708;37.644;2023-05-10T18:25:07;9.27;78.22
75786;DHT22;64402;44.708;37.644;2023-05-10T18:27:33;9.18;78.24
75786;DHT22;64402;44.708;37.644;2023-05-10T18:29:59;9.16;78.20
75786;DHT22;64402;44.708;37.644;2023-05-10T18:32:25;9.09;79.11
75786;DHT22;64402;44.708;37.644;2023-05-10T18:34:52;9.05;79.78
75786;DHT22;64402;44.708;37.644;2023-05-10T18:37:18;8.93;79.73
75786;DHT22;64402;44.708;37.644;2023-05-10T18:39:45;8.82;79.37
75786;DHT22;64402;44.708;37.644;2023-05-10T18:42:12;8.80;80.28
75786;DHT22;64402;44.708;37.644;2023-05-10T18:44:38;8.78;79.68
75786;DHT22;64402;44.708;37.644;2023-05-10T18:47:04;8.70;79.42
75786;DHT22;64402;44.708;37.644;2023-05-10T18:49:30;8.64;79.75
75786;DHT22;64402;44.708;37.644;2023-05-10T18:51:57;8.58;79.87
75786;DHT22;64402;44.708;37.644;2023-05-10T18:54:23;8.53;80.20
75786;DHT22;64402;44.708;37.644;2023-05-10T18:56:49;8.53;80.33
75786;DHT22;64402;44.708;37.644;2023-05-10T18:59:15;8.52;80.62
75786;DHT22;64402;44.708;37.644;2023-05-10T19:01:42;8.45;80.36
75786;DHT22;64402;44.708;37.644;2023-05-10T19:04:08;8.45;80.83
75786;DHT22;64402;44.708;37.644;2023-05-10T19:06:34;8.38;80.71
75786;DHT22;64402;44.708;37.644;2023-05-10T19:09:01;8.32;80.37
75786;DHT22;64402;44.708;37.644;2023-05-10T19:11:27;8.29;81.14
75786;DHT22;64402;44.708;37.644;2023-05-10T19:13:56;8.22;81.57
75786;DHT22;64402;44.708;37.644;2023-05-10T19:16:23;8.17;81.54
75786;DHT22;64402;44.708;37.644;2023-05-10T19:18:49;8.06;82.13
75786;DHT22;64402;44.708;37.644;2023-05-10T19:21:15;7.97;82.42
75786;DHT22;64402;44.708;37.644;2023-05-10T19:23:41;7.90;82.64
75786;DHT22;64402;44.708;37.644;2023-05-10T19:26:09;7.89;82.07
75786;DHT22;64402;44.708;37.644;2023-05-10T19:28:36;7.88;82.60
75786;DHT22;64402;44.708;37.644;2023-05-10T19:31:02;7.86;82.39
75786;DHT22;64402;44.708;37.644;2023-05-10T19:33:28;7.84;82.60
75786;DHT22;64402;44.708;37.644;2023-05-10T19:35:54;7.83;82.54
75786;DHT22;64402;44.708;37.644;2023-05-10T19:38:22;7.78;82.58
75786;DHT22;64402;44.708;37.644;2023-05-10T19:40:54;7.73;82.71
75786;DHT22;64402;44.708;37.644;2023-05-10T19:43:27;7.61;83.09
75786;DHT22;64402;44.708;37.644;2023-05-10T19:45:56;7.57;83.12
75786;DHT22;64402;44.708;37.644;2023-05-10T19:48:23;7.53;83.11
75786;DHT22;64402;44.708;37.644;2023-05-10T19:50:50;7.49;83.16
75786;DHT22;64402;44.708;37.644;2023-05-10T19:53:16;7.45;83.36
75786;DHT22;64402;44.708;37.644;2023-05-10T19:55:43;7.45;83.57
75786;DHT22;64402;44.708;37.644;2023-05-10T19:58:10;7.42;83.68
75786;DHT22;64402;44.708;37.644;2023-05-10T20:00:36;7.38;83.90
75786;DHT22;64402;44.708;37.644;2023-05-10T20:03:02;7.37;83.73
75786;DHT22;64402;44.708;37.644;2023-05-10T20:05:30;7.33;83.83
75786;DHT22;64402;44.708;37.644;2023-05-10T20:07:56;7.27;84.11
75786;DHT22;64402;44.708;37.644;2023-05-10T20:10:23;7.19;84.11
75786;DHT22;64402;44.708;37.644;2023-05-10T20:12:50;7.12;84.35
75786;DHT22;64402;44.708;37.644;2023-05-10T20:15:18;7.14;84.41
75786;DHT22;64402;44.708;37.644;2023-05-10T20:17:46;7.10;84.67
75786;DHT22;64402;44.708;37.644;2023-05-10T20:20:13;7.10;84.65
75786;DHT22;64402;44.708;37.644;2023-05-10T20:22:43;7.10;84.81
75786;DHT22;64402;44.708;37.644;2023-05-10T20:25:10;7.11;84.42
75786;DHT22;64402;44.708;37.644;2023-05-10T20:27:37;7.10;84.20
75786;DHT22;64402;44.708;37.644;2023-05-10T20:30:04;7.05;84.12
75786;DHT22;64402;44.708;37.644;2023-05-10T20:32:30;7.07;84.61
75786;DHT22;64402;44.708;37.644;2023-05-10T20:34:57;7.05;84.68
75786;DHT22;64402;44.708;37.644;2023-05-10T20:37:23;7.02;84.55
75786;DHT22;64402;44.708;37.644;2023-05-10T20:39:49;7.01;84.26